sensor_id;sensor_type;location;lat;lon;timestamp;temperature;humidity
75217;HTU21D;63800;51.972;5.682;2023-04-09T00:00:38;10.12;84.00
75217;HTU21D;63800;51.972;5.682;2023-04-09T00:03:03;10.08;84.74
75217;HTU21D;63800;51.972;5.682;2023-04-09T00:05:29;10.00;85.45
75217;HTU21D;63800;51.972;5.682;2023-04-09T00:07:54;10.00;85.99
75217;HTU21D;63800;51.972;5.682;2023-04-09T00:10:20;9.99;85.61
75217;HTU21D;63800;51.972;5.682;2023-04-09T00:12:45;9.88;86.41
75217;HTU21D;63800;51.972;5.682;2023-04-09T00:15:11;10.08;84.25
75217;HTU21D;63800;51.972;5.682;2023-04-09T00:17:37;10.22;83.78
75217;HTU21D;63800;51.972;5.682;2023-04-09T00:20:02;10.13;84.35
75217;HTU21D;63800;51.972;5.682;2023-04-09T00:22:29;10.07;84.10
75217;HTU21D;63800;51.972;5.682;2023-04-09T00:24:54;9.97;85.61
75217;HTU21D;63800;51.972;5.682;2023-04-09T00:27:20;9.99;86.20
75217;HTU21D;63800;51.972;5.682;2023-04-09T00:29:45;9.96;85.44
75217;HTU21D;63800;51.972;5.682;2023-04-09T00:32:12;9.99;85.29
75217;HTU21D;63800;51.972;5.682;2023-04-09T00:34:37;9.98;85.64
75217;HTU21D;63800;51.972;5.682;2023-04-09T00:37:03;9.99;86.96
75217;HTU21D;63800;51.972;5.682;2023-04-09T00:39:28;9.92;87.04
75217;HTU21D;63800;51.972;5.682;2023-04-09T00:42:04;10.19;84.94
75217;HTU21D;63800;51.972;5.682;2023-04-09T00:44:29;10.01;85.85
75217;HTU21D;63800;51.972;5.682;2023-04-09T00:46:57;9.96;86.64
75217;HTU21D;63800;51.972;5.682;2023-04-09T00:49:23;9.91;87.25
75217;HTU21D;63800;51.972;5.682;2023-04-09T00:51:50;9.92;86.90
75217;HTU21D;63800;51.972;5.682;2023-04-09T00:54:16;9.82;87.12
75217;HTU21D;63800;51.972;5.682;2023-04-09T00:56:42;9.88;86.36
75217;HTU21D;63800;51.972;5.682;2023-04-09T00:59:08;9.83;88.02
75217;HTU21D;63800;51.972;5.682;2023-04-09T01:01:33;9.86;85.73
75217;HTU21D;63800;51.972;5.682;2023-04-09T01:03:59;9.97;86.38
75217;HTU21D;63800;51.972;5.682;2023-04-09T01:14:34;9.93;88.43
75217;HTU21D;63800;51.972;5.682;2023-04-09T01:17:15;9.91;87.07
75217;HTU21D;63800;51.972;5.682;2023-04-09T01:19:56;9.82;87.32
75217;HTU21D;63800;51.972;5.682;2023-04-09T01:27:39;9.94;86.22
75217;HTU21D;63800;51.972;5.682;2023-04-09T01:30:07;10.00;85.92
75217;HTU21D;63800;51.972;5.682;2023-04-09T01:32:34;9.98;86.50
75217;HTU21D;63800;51.972;5.682;2023-04-09T01:35:02;9.90;87.05
75217;HTU21D;63800;51.972;5.682;2023-04-09T01:37:28;9.90;86.32
75217;HTU21D;63800;51.972;5.682;2023-04-09T01:39:53;9.84;87.64
75217;HTU21D;63800;51.972;5.682;2023-04-09T01:42:19;9.89;86.32
75217;HTU21D;63800;51.972;5.682;2023-04-09T01:44:45;9.91;87.26
75217;HTU21D;63800;51.972;5.682;2023-04-09T01:47:11;9.81;87.28
75217;HTU21D;63800;51.972;5.682;2023-04-09T01:49:39;9.80;87.99
75217;HTU21D;63800;51.972;5.682;2023-04-09T01:52:06;9.89;87.58
75217;HTU21D;63800;51.972;5.682;2023-04-09T01:54:31;9.79;88.19
75217;HTU21D;63800;51.972;5.682;2023-04-09T01:56:57;9.81;88.89
75217;HTU21D;63800;51.972;5.682;2023-04-09T01:59:22;9.82;87.58
75217;HTU21D;63800;51.972;5.682;2023-04-09T02:01:59;9.80;87.50
75217;HTU21D;63800;51.972;5.682;2023-04-09T02:04:32;9.74;89.11
75217;HTU21D;63800;51.972;5.682;2023-04-09T02:09:48;9.83;88.43
75217;HTU21D;63800;51.972;5.682;2023-04-09T02:12:17;9.81;89.28
75217;HTU21D;63800;51.972;5.682;2023-04-09T02:14:45;10.05;86.35
75217;HTU21D;63800;51.972;5.682;2023-04-09T02:17:11;10.19;84.90
75217;HTU21D;63800;51.972;5.682;2023-04-09T02:19:42;10.01;85.26
75217;HTU21D;63800;51.972;5.682;2023-04-09T02:22:08;9.88;85.68
75217;HTU21D;63800;51.972;5.682;2023-04-09T02:24:33;9.82;87.26
75217;HTU21D;63800;51.972;5.682;2023-04-09T02:26:59;9.90;84.97
75217;HTU21D;63800;51.972;5.682;2023-04-09T02:29:26;9.92;85.40
75217;HTU21D;63800;51.972;5.682;2023-04-09T02:31:51;9.98;84.61
75217;HTU21D;63800;51.972;5.682;2023-04-09T02:34:18;10.12;83.79
75217;HTU21D;63800;51.972;5.682;2023-04-09T02:36:43;9.94;85.51
75217;HTU21D;63800;51.972;5.682;2023-04-09T02:39:09;9.89;85.79
75217;HTU21D;63800;51.972;5.682;2023-04-09T02:41:34;9.96;84.16
75217;HTU21D;63800;51.972;5.682;2023-04-09T02:44:00;9.93;84.47
75217;HTU21D;63800;51.972;5.682;2023-04-09T02:46:25;9.98;84.55
75217;HTU21D;63800;51.972;5.682;2023-04-09T02:48:50;10.24;82.30
75217;HTU21D;63800;51.972;5.682;2023-04-09T02:51:16;10.10;83.10
75217;HTU21D;63800;51.972;5.682;2023-04-09T02:53:41;9.85;83.94
75217;HTU21D;63800;51.972;5.682;2023-04-09T02:56:07;9.82;83.85
75217;HTU21D;63800;51.972;5.682;2023-04-09T02:58:32;9.88;82.98
75217;HTU21D;63800;51.972;5.682;2023-04-09T03:00:58;9.93;83.01
75217;HTU21D;63800;51.972;5.682;2023-04-09T03:03:23;9.98;82.74
75217;HTU21D;63800;51.972;5.682;2023-04-09T03:05:48;9.78;84.23
75217;HTU21D;63800;51.972;5.682;2023-04-09T03:08:14;9.72;84.60
75217;HTU21D;63800;51.972;5.682;2023-04-09T03:10:40;9.81;84.87
75217;HTU21D;63800;51.972;5.682;2023-04-09T03:13:05;9.91;82.62
75217;HTU21D;63800;51.972;5.682;2023-04-09T03:15:31;9.94;83.10
75217;HTU21D;63800;51.972;5.682;2023-04-09T03:17:56;9.91;83.23
75217;HTU21D;63800;51.972;5.682;2023-04-09T03:20:21;9.77;84.39
75217;HTU21D;63800;51.972;5.682;2023-04-09T03:22:47;9.76;84.93
75217;HTU21D;63800;51.972;5.682;2023-04-09T03:25:12;9.69;84.45
75217;HTU21D;63800;51.972;5.682;2023-04-09T03:27:38;9.77;84.73
75217;HTU21D;63800;51.972;5.682;2023-04-09T03:30:03;9.79;82.87
75217;HTU21D;63800;51.972;5.682;2023-04-09T03:32:29;9.96;82.66
75217;HTU21D;63800;51.972;5.682;2023-04-09T03:34:54;10.06;82.10
75217;HTU21D;63800;51.972;5.682;2023-04-09T03:37:20;9.90;83.42
75217;HTU21D;63800;51.972;5.682;2023-04-09T03:39:45;9.81;84.07
75217;HTU21D;63800;51.972;5.682;2023-04-09T03:42:11;9.75;84.47
75217;HTU21D;63800;51.972;5.682;2023-04-09T03:44:36;9.86;82.86
75217;HTU21D;63800;51.972;5.682;2023-04-09T03:47:02;9.68;83.05
75217;HTU21D;63800;51.972;5.682;2023-04-09T03:49:27;9.78;82.30
75217;HTU21D;63800;51.972;5.682;2023-04-09T03:51:53;10.07;80.85
75217;HTU21D;63800;51.972;5.682;2023-04-09T03:54:18;9.84;82.28
75217;HTU21D;63800;51.972;5.682;2023-04-09T03:56:44;9.63;83.37
75217;HTU21D;63800;51.972;5.682;2023-04-09T03:59:09;9.61;84.06
75217;HTU21D;63800;51.972;5.682;2023-04-09T04:01:35;9.75;82.46
75217;HTU21D;63800;51.972;5.682;2023-04-09T04:04:00;9.74;81.52
75217;HTU21D;63800;51.972;5.682;2023-04-09T04:06:26;9.71;82.20
75217;HTU21D;63800;51.972;5.682;2023-04-09T04:08:52;9.81;82.63
75217;HTU21D;63800;51.972;5.682;2023-04-09T04:11:17;9.77;82.49
75217;HTU21D;63800;51.972;5.682;2023-04-09T04:13:43;9.69;82.84
75217;HTU21D;63800;51.972;5.682;2023-04-09T04:16:09;9.63;83.32
75217;HTU21D;63800;51.972;5.682;2023-04-09T04:18:35;9.52;84.03
75217;HTU21D;63800;51.972;5.682;2023-04-09T04:21:01;9.62;84.06
75217;HTU21D;63800;51.972;5.682;2023-04-09T04:23:26;9.60;83.21
75217;HTU21D;63800;51.972;5.682;2023-04-09T04:25:52;9.56;84.13
75217;HTU21D;63800;51.972;5.682;2023-04-09T04:28:17;9.69;82.87
75217;HTU21D;63800;51.972;5.682;2023-04-09T04:30:43;9.59;83.20
75217;HTU21D;63800;51.972;5.682;2023-04-09T04:33:09;9.70;83.37
75217;HTU21D;63800;51.972;5.682;2023-04-09T04:35:34;9.56;84.49
75217;HTU21D;63800;51.972;5.682;2023-04-09T04:38:00;9.46;85.71
75217;HTU21D;63800;51.972;5.682;2023-04-09T04:40:26;9.65;84.74
75217;HTU21D;63800;51.972;5.682;2023-04-09T04:42:51;9.53;84.18
75217;HTU21D;63800;51.972;5.682;2023-04-09T04:45:17;9.55;84.31
75217;HTU21D;63800;51.972;5.682;2023-04-09T04:47:42;9.67;83.39
75217;HTU21D;63800;51.972;5.682;2023-04-09T04:50:08;9.67;83.67
75217;HTU21D;63800;51.972;5.682;2023-04-09T04:52:35;9.61;84.58
75217;HTU21D;63800;51.972;5.682;2023-04-09T04:55:00;9.79;83.49
75217;HTU21D;63800;51.972;5.682;2023-04-09T04:57:26;9.59;86.12
75217;HTU21D;63800;51.972;5.682;2023-04-09T04:59:51;9.66;84.84
75217;HTU21D;63800;51.972;5.682;2023-04-09T05:02:17;9.77;84.35
75217;HTU21D;63800;51.972;5.682;2023-04-09T05:04:42;9.83;84.35
75217;HTU21D;63800;51.972;5.682;2023-04-09T05:07:08;9.79;83.84
75217;HTU21D;63800;51.972;5.682;2023-04-09T05:09:33;9.92;83.42
75217;HTU21D;63800;51.972;5.682;2023-04-09T05:11:58;9.79;84.03
75217;HTU21D;63800;51.972;5.682;2023-04-09T05:14:24;9.70;85.06
75217;HTU21D;63800;51.972;5.682;2023-04-09T05:16:49;9.76;84.29
75217;HTU21D;63800;51.972;5.682;2023-04-09T05:19:15;9.57;85.54
75217;HTU21D;63800;51.972;5.682;2023-04-09T05:21:40;9.66;85.16
75217;HTU21D;63800;51.972;5.682;2023-04-09T05:24:06;9.76;84.38
75217;HTU21D;63800;51.972;5.682;2023-04-09T05:26:31;9.80;84.02
75217;HTU21D;63800;51.972;5.682;2023-04-09T05:28:57;9.91;82.35
75217;HTU21D;63800;51.972;5.682;2023-04-09T05:31:22;9.94;82.23
75217;HTU21D;63800;51.972;5.682;2023-04-09T05:33:48;9.80;81.91
75217;HTU21D;63800;51.972;5.682;2023-04-09T05:36:15;9.71;81.71
75217;HTU21D;63800;51.972;5.682;2023-04-09T05:38:41;9.59;81.78
75217;HTU21D;63800;51.972;5.682;2023-04-09T05:41:07;9.42;81.23
75217;HTU21D;63800;51.972;5.682;2023-04-09T05:43:32;9.25;81.81
75217;HTU21D;63800;51.972;5.682;2023-04-09T05:45:58;9.38;80.78
75217;HTU21D;63800;51.972;5.682;2023-04-09T05:48:23;9.19;82.16
75217;HTU21D;63800;51.972;5.682;2023-04-09T05:50:50;9.12;81.81
75217;HTU21D;63800;51.972;5.682;2023-04-09T05:53:17;9.04;81.92
75217;HTU21D;63800;51.972;5.682;2023-04-09T05:55:43;8.92;83.07
75217;HTU21D;63800;51.972;5.682;2023-04-09T05:58:09;8.66;85.50
75217;HTU21D;63800;51.972;5.682;2023-04-09T06:00:34;8.96;83.70
75217;HTU21D;63800;51.972;5.682;2023-04-09T06:02:59;8.96;82.75
75217;HTU21D;63800;51.972;5.682;2023-04-09T06:05:25;8.88;83.25
75217;HTU21D;63800;51.972;5.682;2023-04-09T06:07:50;9.00;82.06
75217;HTU21D;63800;51.972;5.682;2023-04-09T06:10:16;8.87;82.54
75217;HTU21D;63800;51.972;5.682;2023-04-09T06:12:41;9.03;81.31
75217;HTU21D;63800;51.972;5.682;2023-04-09T06:15:07;8.98;81.86
75217;HTU21D;63800;51.972;5.682;2023-04-09T06:17:33;8.83;82.56
75217;HTU21D;63800;51.972;5.682;2023-04-09T06:19:58;8.83;83.20
75217;HTU21D;63800;51.972;5.682;2023-04-09T06:22:26;8.75;83.63
75217;HTU21D;63800;51.972;5.682;2023-04-09T06:24:52;8.82;83.20
75217;HTU21D;63800;51.972;5.682;2023-04-09T06:27:17;8.75;82.68
75217;HTU21D;63800;51.972;5.682;2023-04-09T06:29:43;8.73;83.45
75217;HTU21D;63800;51.972;5.682;2023-04-09T06:32:08;8.62;83.76
75217;HTU21D;63800;51.972;5.682;2023-04-09T06:34:34;8.66;83.10
75217;HTU21D;63800;51.972;5.682;2023-04-09T06:36:59;8.73;83.13
75217;HTU21D;63800;51.972;5.682;2023-04-09T06:39:25;8.72;83.42
75217;HTU21D;63800;51.972;5.682;2023-04-09T06:41:52;8.78;83.63
75217;HTU21D;63800;51.972;5.682;2023-04-09T06:44:17;8.91;82.20
75217;HTU21D;63800;51.972;5.682;2023-04-09T06:46:44;8.73;83.73
75217;HTU21D;63800;51.972;5.682;2023-04-09T06:49:09;8.82;82.46
75217;HTU21D;63800;51.972;5.682;2023-04-09T06:51:35;8.94;81.43
75217;HTU21D;63800;51.972;5.682;2023-04-09T06:54:00;9.04;81.41
75217;HTU21D;63800;51.972;5.682;2023-04-09T06:56:25;9.24;80.23
75217;HTU21D;63800;51.972;5.682;2023-04-09T06:58:51;9.19;80.50
75217;HTU21D;63800;51.972;5.682;2023-04-09T07:01:16;9.34;79.09
75217;HTU21D;63800;51.972;5.682;2023-04-09T07:03:42;9.44;78.44
75217;HTU21D;63800;51.972;5.682;2023-04-09T07:06:07;9.27;78.95
75217;HTU21D;63800;51.972;5.682;2023-04-09T07:08:33;9.16;80.46
75217;HTU21D;63800;51.972;5.682;2023-04-09T07:10:58;9.09;81.73
75217;HTU21D;63800;51.972;5.682;2023-04-09T07:13:24;9.21;80.09
75217;HTU21D;63800;51.972;5.682;2023-04-09T07:15:49;9.11;81.77
75217;HTU21D;63800;51.972;5.682;2023-04-09T07:18:15;9.02;82.40
75217;HTU21D;63800;51.972;5.682;2023-04-09T07:20:40;9.19;80.91
75217;HTU21D;63800;51.972;5.682;2023-04-09T07:23:05;8.88;81.12
75217;HTU21D;63800;51.972;5.682;2023-04-09T07:25:31;9.06;81.47
75217;HTU21D;63800;51.972;5.682;2023-04-09T07:27:57;9.29;80.67
75217;HTU21D;63800;51.972;5.682;2023-04-09T07:30:22;9.64;79.28
75217;HTU21D;63800;51.972;5.682;2023-04-09T07:32:48;9.41;78.99
75217;HTU21D;63800;51.972;5.682;2023-04-09T07:35:13;9.34;79.49
75217;HTU21D;63800;51.972;5.682;2023-04-09T07:37:39;9.26;79.58
75217;HTU21D;63800;51.972;5.682;2023-04-09T07:40:05;9.50;79.15
75217;HTU21D;63800;51.972;5.682;2023-04-09T07:42:31;9.82;78.19
75217;HTU21D;63800;51.972;5.682;2023-04-09T07:44:56;9.80;78.82
75217;HTU21D;63800;51.972;5.682;2023-04-09T07:47:22;9.75;78.58
75217;HTU21D;63800;51.972;5.682;2023-04-09T07:49:48;9.99;78.23
75217;HTU21D;63800;51.972;5.682;2023-04-09T07:52:13;9.90;77.19
75217;HTU21D;63800;51.972;5.682;2023-04-09T07:54:39;9.56;79.14
75217;HTU21D;63800;51.972;5.682;2023-04-09T07:57:05;9.82;79.13
75217;HTU21D;63800;51.972;5.682;2023-04-09T07:59:34;9.90;77.71
75217;HTU21D;63800;51.972;5.682;2023-04-09T08:02:00;9.90;77.46
75217;HTU21D;63800;51.972;5.682;2023-04-09T08:04:26;9.41;79.89
75217;HTU21D;63800;51.972;5.682;2023-04-09T08:06:52;9.80;78.78
75217;HTU21D;63800;51.972;5.682;2023-04-09T08:09:21;9.83;78.73
75217;HTU21D;63800;51.972;5.682;2023-04-09T08:11:47;10.07;77.32
75217;HTU21D;63800;51.972;5.682;2023-04-09T08:14:14;9.83;78.26
75217;HTU21D;63800;51.972;5.682;2023-04-09T08:16:42;10.10;79.46
75217;HTU21D;63800;51.972;5.682;2023-04-09T08:19:08;10.34;77.94
75217;HTU21D;63800;51.972;5.682;2023-04-09T08:21:39;10.42;76.44
75217;HTU21D;63800;51.972;5.682;2023-04-09T08:24:11;10.29;78.18
75217;HTU21D;63800;51.972;5.682;2023-04-09T08:26:40;10.16;76.74
75217;HTU21D;63800;51.972;5.682;2023-04-09T08:29:06;10.46;76.22
75217;HTU21D;63800;51.972;5.682;2023-04-09T08:31:33;10.51;76.82
75217;HTU21D;63800;51.972;5.682;2023-04-09T08:33:59;10.60;76.21
75217;HTU21D;63800;51.972;5.682;2023-04-09T08:36:24;10.60;75.47
75217;HTU21D;63800;51.972;5.682;2023-04-09T08:38:53;10.83;75.95
75217;HTU21D;63800;51.972;5.682;2023-04-09T08:41:23;11.10;74.62
75217;HTU21D;63800;51.972;5.682;2023-04-09T08:43:50;10.62;73.77
75217;HTU21D;63800;51.972;5.682;2023-04-09T08:46:20;11.08;74.38
75217;HTU21D;63800;51.972;5.682;2023-04-09T08:48:47;10.99;74.61
75217;HTU21D;63800;51.972;5.682;2023-04-09T08:51:17;11.18;73.74
75217;HTU21D;63800;51.972;5.682;2023-04-09T08:53:59;11.36;73.03
75217;HTU21D;63800;51.972;5.682;2023-04-09T08:56:25;11.26;72.25
75217;HTU21D;63800;51.972;5.682;2023-04-09T08:58:51;11.33;71.47
75217;HTU21D;63800;51.972;5.682;2023-04-09T09:01:21;11.37;71.42
75217;HTU21D;63800;51.972;5.682;2023-04-09T09:04:07;11.31;71.23
75217;HTU21D;63800;51.972;5.682;2023-04-09T09:06:37;11.31;70.11
75217;HTU21D;63800;51.972;5.682;2023-04-09T09:09:11;11.29;71.14
75217;HTU21D;63800;51.972;5.682;2023-04-09T09:11:43;11.47;70.72
75217;HTU21D;63800;51.972;5.682;2023-04-09T09:14:16;11.56;69.88
75217;HTU21D;63800;51.972;5.682;2023-04-09T09:17:01;11.57;69.71
75217;HTU21D;63800;51.972;5.682;2023-04-09T09:19:31;11.52;70.10
75217;HTU21D;63800;51.972;5.682;2023-04-09T09:22:06;11.59;70.35
75217;HTU21D;63800;51.972;5.682;2023-04-09T09:24:33;11.83;68.34
75217;HTU21D;63800;51.972;5.682;2023-04-09T09:26:59;12.13;68.78
75217;HTU21D;63800;51.972;5.682;2023-04-09T09:29:26;12.10;67.31
75217;HTU21D;63800;51.972;5.682;2023-04-09T09:31:53;12.30;66.84
75217;HTU21D;63800;51.972;5.682;2023-04-09T09:34:20;12.01;66.94
75217;HTU21D;63800;51.972;5.682;2023-04-09T09:36:46;12.10;66.84
75217;HTU21D;63800;51.972;5.682;2023-04-09T09:39:13;12.35;65.03
75217;HTU21D;63800;51.972;5.682;2023-04-09T09:41:40;12.42;64.16
75217;HTU21D;63800;51.972;5.682;2023-04-09T09:44:07;12.51;66.74
75217;HTU21D;63800;51.972;5.682;2023-04-09T09:46:35;12.77;65.40
75217;HTU21D;63800;51.972;5.682;2023-04-09T09:49:01;13.01;64.12
75217;HTU21D;63800;51.972;5.682;2023-04-09T09:51:27;12.97;64.73
75217;HTU21D;63800;51.972;5.682;2023-04-09T09:53:56;13.03;62.34
75217;HTU21D;63800;51.972;5.682;2023-04-09T09:56:24;12.85;63.17
75217;HTU21D;63800;51.972;5.682;2023-04-09T09:59:01;13.10;63.50
75217;HTU21D;63800;51.972;5.682;2023-04-09T10:01:31;12.90;62.80
75217;HTU21D;63800;51.972;5.682;2023-04-09T10:03:59;13.37;65.14
75217;HTU21D;63800;51.972;5.682;2023-04-09T10:06:25;13.47;61.28
75217;HTU21D;63800;51.972;5.682;2023-04-09T10:08:56;13.52;60.30
75217;HTU21D;63800;51.972;5.682;2023-04-09T10:11:22;13.54;62.04
75217;HTU21D;63800;51.972;5.682;2023-04-09T10:13:57;13.70;60.44
